createdAt,value
2023-04-07T00:00:36.173Z,8.53
2023-04-07T00:03:07.324Z,8.62
2023-04-07T00:05:34.966Z,8.40
2023-04-07T00:08:02.078Z,8.59
2023-04-07T00:10:29.139Z,8.33
2023-04-07T00:12:56.200Z,8.27
2023-04-07T00:15:23.340Z,8.28
2023-04-07T00:17:50.614Z,8.38
2023-04-07T00:20:17.834Z,8.39
2023-04-07T00:22:44.928Z,8.58
2023-04-07T00:25:11.986Z,8.68
2023-04-07T00:27:39.043Z,8.71
2023-04-07T00:30:07.069Z,8.61
2023-04-07T00:32:35.289Z,7.68
2023-04-07T00:35:03.124Z,8.58
2023-04-07T00:37:30.120Z,8.44
2023-04-07T00:39:58.336Z,8.45
2023-04-07T00:42:25.501Z,8.19
2023-04-07T00:44:52.580Z,8.53
2023-04-07T00:47:20.693Z,8.70
2023-04-07T00:49:47.835Z,8.20
2023-04-07T00:52:15.410Z,7.95
2023-04-07T00:54:43.553Z,8.33
2023-04-07T00:57:10.752Z,8.45
2023-04-07T00:59:38.208Z,8.68
2023-04-07T01:02:32.205Z,8.49
2023-04-07T01:05:08.800Z,8.19
2023-04-07T01:07:39.913Z,8.29
2023-04-07T01:10:10.828Z,8.28
2023-04-07T01:13:11.812Z,7.71
2023-04-07T01:15:40.841Z,8.00
2023-04-07T01:18:14.085Z,8.06
2023-04-07T01:20:44.281Z,8.29
2023-04-07T01:23:23.588Z,8.34
2023-04-07T01:26:18.319Z,8.72
2023-04-07T01:28:58.050Z,8.66
2023-04-07T01:31:27.120Z,8.31
2023-04-07T01:33:56.894Z,8.39
2023-04-07T01:36:25.004Z,8.58
2023-04-07T01:38:52.977Z,8.70
2023-04-07T01:41:20.472Z,8.67
2023-04-07T01:43:48.945Z,8.41
2023-04-07T01:46:16.208Z,8.55
2023-04-07T01:48:43.553Z,8.71
2023-04-07T01:51:14.876Z,8.85
2023-04-07T01:53:42.285Z,8.71
2023-04-07T01:56:09.396Z,8.31
2023-04-07T01:58:36.661Z,8.56
2023-04-07T02:01:03.986Z,8.79
2023-04-07T02:03:53.070Z,8.51
2023-04-07T02:06:27.119Z,8.29
2023-04-07T02:09:00.172Z,8.05
2023-04-07T02:11:29.676Z,8.24
2023-04-07T02:13:57.940Z,8.18
2023-04-07T02:16:26.393Z,7.84
2023-04-07T02:18:54.193Z,8.06
2023-04-07T02:21:21.931Z,7.95
2023-04-07T02:23:49.093Z,7.38
2023-04-07T02:26:16.160Z,7.75
2023-04-07T02:28:43.200Z,7.50
2023-04-07T02:31:10.785Z,7.85
2023-04-07T02:33:37.827Z,7.73
2023-04-07T02:36:04.914Z,7.99
2023-04-07T02:38:32.543Z,8.17
2023-04-07T02:40:59.855Z,8.15
2023-04-07T02:43:27.404Z,7.42
2023-04-07T02:45:55.157Z,7.71
2023-04-07T02:48:22.374Z,7.54
2023-04-07T02:50:49.385Z,7.46
2023-04-07T02:53:16.444Z,7.60
2023-04-07T02:55:43.423Z,7.20
2023-04-07T02:58:10.637Z,7.64
2023-04-07T03:00:37.736Z,7.68
2023-04-07T03:03:04.893Z,8.03
2023-04-07T03:05:32.099Z,8.00
2023-04-07T03:07:59.101Z,7.62
2023-04-07T03:10:26.202Z,7.71
2023-04-07T03:12:53.282Z,7.17
2023-04-07T03:15:20.360Z,7.63
2023-04-07T03:17:47.476Z,7.83
2023-04-07T03:20:14.617Z,7.43
2023-04-07T03:22:42.016Z,7.71
2023-04-07T03:25:09.870Z,7.77
2023-04-07T03:27:36.976Z,7.69
2023-04-07T03:30:04.755Z,7.84
2023-04-07T03:32:31.961Z,7.79
2023-04-07T03:34:59.082Z,7.84
2023-04-07T03:37:26.290Z,8.13
2023-04-07T03:39:53.333Z,7.85
2023-04-07T03:42:20.394Z,7.88
2023-04-07T03:44:47.615Z,7.83
2023-04-07T03:47:14.577Z,7.82
2023-04-07T03:49:41.618Z,8.06
2023-04-07T03:52:08.633Z,7.95
2023-04-07T03:54:35.726Z,7.86
2023-04-07T03:57:03.216Z,7.75
2023-04-07T03:59:30.236Z,7.31
2023-04-07T04:01:57.417Z,8.02
2023-04-07T04:04:27.421Z,8.04
2023-04-07T04:06:54.495Z,7.85
2023-04-07T04:09:21.612Z,7.65
2023-04-07T04:11:48.640Z,8.09
2023-04-07T04:14:16.185Z,7.97
2023-04-07T04:16:43.875Z,8.15
2023-04-07T04:19:11.200Z,8.06
2023-04-07T04:21:38.275Z,8.04
2023-04-07T04:24:05.472Z,8.02
2023-04-07T04:26:32.576Z,8.14
2023-04-07T04:28:59.671Z,7.97
2023-04-07T04:31:26.776Z,8.17
2023-04-07T04:33:54.143Z,8.33
2023-04-07T04:36:21.438Z,8.02
2023-04-07T04:38:48.491Z,8.66
2023-04-07T04:41:15.689Z,8.19
2023-04-07T04:43:42.867Z,8.30
2023-04-07T04:46:09.920Z,8.26
2023-04-07T04:48:36.970Z,8.03
2023-04-07T04:51:04.334Z,7.38
2023-04-07T04:53:31.985Z,7.86
2023-04-07T04:55:59.029Z,7.39
2023-04-07T04:58:26.593Z,7.41
2023-04-07T05:01:00.734Z,7.89
2023-04-07T05:03:29.343Z,8.19
2023-04-07T05:05:56.528Z,8.34
2023-04-07T05:08:23.654Z,7.79
2023-04-07T05:10:50.678Z,8.24
2023-04-07T05:13:17.725Z,8.31
2023-04-07T05:15:44.827Z,8.23
2023-04-07T05:18:12.042Z,7.68
2023-04-07T05:20:39.245Z,7.79
2023-04-07T05:23:06.623Z,8.12
2023-04-07T05:25:33.644Z,8.03
2023-04-07T05:28:00.838Z,8.51
2023-04-07T05:30:28.256Z,8.68
2023-04-07T05:32:55.568Z,8.16
2023-04-07T05:35:22.800Z,8.38
2023-04-07T05:37:50.056Z,8.18
2023-04-07T05:40:17.417Z,8.69
2023-04-07T05:42:44.668Z,8.57
2023-04-07T05:45:14.202Z,8.87
2023-04-07T05:47:41.829Z,8.55
2023-04-07T05:50:09.548Z,8.20
2023-04-07T05:52:36.702Z,8.44
2023-04-07T05:55:04.070Z,8.67
2023-04-07T05:57:31.340Z,8.92
2023-04-07T05:59:58.627Z,8.81
2023-04-07T06:02:25.893Z,9.03
2023-04-07T06:04:53.076Z,8.85
2023-04-07T06:07:20.237Z,8.28
2023-04-07T06:09:47.389Z,8.40
2023-04-07T06:12:15.527Z,8.98
2023-04-07T06:14:42.780Z,8.73
2023-04-07T06:17:10.471Z,9.15
2023-04-07T06:19:37.563Z,8.87
2023-04-07T06:22:04.631Z,8.89
2023-04-07T06:24:31.768Z,8.64
2023-04-07T06:26:58.861Z,9.10
2023-04-07T06:29:26.757Z,9.33
2023-04-07T06:31:53.785Z,8.89
2023-04-07T06:34:20.999Z,8.74
2023-04-07T06:36:48.580Z,8.79
2023-04-07T06:39:15.920Z,8.00
2023-04-07T06:41:45.722Z,7.97
2023-04-07T06:44:12.856Z,7.83
2023-04-07T06:46:40.115Z,8.28
2023-04-07T06:49:07.250Z,8.27
2023-04-07T06:51:34.326Z,8.32
2023-04-07T06:54:01.365Z,8.14
2023-04-07T06:56:28.429Z,8.37
2023-04-07T06:58:55.639Z,8.53
2023-04-07T07:01:24.763Z,8.05
2023-04-07T07:03:52.041Z,8.41
2023-04-07T07:06:19.409Z,7.89
2023-04-07T07:08:46.628Z,7.90
2023-04-07T07:11:13.667Z,8.19
2023-04-07T07:13:40.683Z,8.31
2023-04-07T07:16:07.863Z,8.96
2023-04-07T07:18:35.046Z,8.96
2023-04-07T07:21:02.056Z,8.69
2023-04-07T07:23:29.141Z,8.93
2023-04-07T07:25:56.459Z,8.91
2023-04-07T07:28:24.157Z,8.82
2023-04-07T07:30:51.301Z,9.37
2023-04-07T07:33:18.388Z,8.94
2023-04-07T07:35:45.685Z,8.96
2023-04-07T07:38:12.762Z,8.87
2023-04-07T07:40:39.942Z,9.04
2023-04-07T07:43:07.069Z,8.98
2023-04-07T07:45:34.257Z,9.35
2023-04-07T07:48:01.473Z,9.86
2023-04-07T07:50:28.578Z,9.36
2023-04-07T07:52:55.692Z,9.75
2023-04-07T07:55:22.799Z,9.94
2023-04-07T07:57:49.945Z,9.63
2023-04-07T08:00:17.555Z,9.69
2023-04-07T08:02:44.867Z,9.93
2023-04-07T08:05:13.138Z,10.16
2023-04-07T08:07:40.266Z,10.18
2023-04-07T08:10:07.838Z,9.77
2023-04-07T08:12:35.620Z,9.23
2023-04-07T08:15:03.079Z,9.42
2023-04-07T08:17:30.303Z,9.58
2023-04-07T08:19:57.431Z,8.86
2023-04-07T08:22:24.472Z,9.73
2023-04-07T08:24:51.522Z,9.41
2023-04-07T08:27:18.894Z,9.20
2023-04-07T08:29:46.154Z,9.77
2023-04-07T08:32:13.213Z,9.35
2023-04-07T08:34:40.352Z,9.77
2023-04-07T08:37:09.628Z,10.18
2023-04-07T08:39:36.842Z,9.83
2023-04-07T08:42:04.229Z,9.63
2023-04-07T08:44:31.832Z,9.55
2023-04-07T08:47:01.883Z,10.06
2023-04-07T08:49:29.973Z,10.22
2023-04-07T08:51:57.904Z,10.30
2023-04-07T08:54:25.282Z,10.51
2023-04-07T08:56:53.133Z,9.78
2023-04-07T08:59:25.736Z,9.85
2023-04-07T09:01:53.396Z,9.95
2023-04-07T09:04:23.249Z,10.50
2023-04-07T09:06:50.246Z,10.04
2023-04-07T09:09:17.319Z,10.23
2023-04-07T09:11:44.584Z,9.79
2023-04-07T09:14:11.725Z,10.13
2023-04-07T09:16:39.380Z,9.75
2023-04-07T09:19:07.548Z,9.75
2023-04-07T09:21:51.988Z,10.13
2023-04-07T09:24:27.297Z,9.77
2023-04-07T09:27:17.044Z,9.91
2023-04-07T09:29:47.145Z,9.41
2023-04-07T09:32:34.173Z,10.11
2023-04-07T09:35:01.491Z,10.16
2023-04-07T09:37:28.473Z,8.89
2023-04-07T09:39:55.615Z,9.03
2023-04-07T09:42:22.788Z,8.87
2023-04-07T09:44:49.876Z,8.93
2023-04-07T09:47:17.282Z,9.67
2023-04-07T09:49:56.565Z,10.21
2023-04-07T09:52:45.921Z,10.45
2023-04-07T09:55:14.182Z,10.36
2023-04-07T09:57:41.773Z,9.92
2023-04-07T10:00:12.835Z,10.04
2023-04-07T10:02:40.554Z,9.35
2023-04-07T10:05:10.332Z,10.31
2023-04-07T10:07:37.668Z,10.07
2023-04-07T10:10:06.115Z,10.17
2023-04-07T10:12:37.326Z,10.47
2023-04-07T10:15:05.149Z,10.10
2023-04-07T10:17:33.869Z,9.98
2023-04-07T10:20:02.453Z,9.83
2023-04-07T10:22:30.855Z,9.95
2023-04-07T10:25:03.077Z,9.07
2023-04-07T10:27:37.287Z,9.75
2023-04-07T10:30:07.734Z,10.56
2023-04-07T10:32:48.074Z,10.91
2023-04-07T10:35:15.295Z,9.88
2023-04-07T10:37:42.372Z,9.75
2023-04-07T10:40:27.400Z,9.02
2023-04-07T10:42:54.869Z,9.48
2023-04-07T10:45:51.583Z,9.91
2023-04-07T10:48:19.847Z,9.95
2023-04-07T10:51:13.037Z,10.24
2023-04-07T10:54:19.265Z,10.60
2023-04-07T10:57:05.346Z,10.08
2023-04-07T10:59:34.408Z,10.12
2023-04-07T11:02:18.203Z,9.55
2023-04-07T11:04:47.088Z,9.63
2023-04-07T11:07:15.198Z,9.90
2023-04-07T11:09:42.654Z,10.20
2023-04-07T11:12:22.484Z,9.74
2023-04-07T11:14:49.372Z,9.90
2023-04-07T11:17:17.873Z,9.75
2023-04-07T11:19:52.996Z,9.96
2023-04-07T11:24:49.817Z,10.69
2023-04-07T11:27:17.115Z,10.94
2023-04-07T11:29:44.412Z,11.42
2023-04-07T11:32:13.367Z,11.47
2023-04-07T11:34:40.746Z,11.76
2023-04-07T11:37:25.670Z,11.84
2023-04-07T11:39:58.378Z,11.50
2023-04-07T11:42:36.506Z,12.05
2023-04-07T11:45:05.072Z,11.99
2023-04-07T11:47:40.775Z,11.62
2023-04-07T11:50:08.334Z,11.11
2023-04-07T11:52:46.633Z,11.38
2023-04-07T11:55:26.996Z,10.40
2023-04-07T11:57:54.116Z,10.82
2023-04-07T12:00:21.615Z,11.14
2023-04-07T12:02:49.002Z,11.41
2023-04-07T12:05:16.294Z,12.17
2023-04-07T12:07:53.752Z,12.37
2023-04-07T12:10:28.491Z,11.80
2023-04-07T12:12:58.147Z,12.11
2023-04-07T12:15:26.361Z,12.43
2023-04-07T12:17:53.401Z,11.97
2023-04-07T12:20:20.654Z,12.59
2023-04-07T12:22:47.697Z,12.68
2023-04-07T12:25:14.854Z,11.83
2023-04-07T12:27:43.812Z,11.75
2023-04-07T12:30:13.314Z,12.50
2023-04-07T12:32:40.562Z,13.16
2023-04-07T12:35:07.834Z,12.22
2023-04-07T12:37:34.948Z,13.40
2023-04-07T12:40:02.072Z,13.47
2023-04-07T12:42:29.088Z,13.95
2023-04-07T12:44:57.034Z,14.11
2023-04-07T12:47:24.276Z,12.31
2023-04-07T12:49:51.426Z,11.77
2023-04-07T12:52:18.486Z,11.27
2023-04-07T12:54:45.715Z,10.67
2023-04-07T12:57:13.318Z,11.34
2023-04-07T12:59:40.344Z,10.97
2023-04-07T13:02:08.687Z,11.12
2023-04-07T13:04:37.258Z,10.63
2023-04-07T13:07:04.422Z,11.12
2023-04-07T13:09:31.539Z,11.02
2023-04-07T13:11:59.025Z,11.19
2023-04-07T13:14:26.247Z,11.67
2023-04-07T13:16:53.319Z,12.14
2023-04-07T13:19:22.498Z,11.32
2023-04-07T13:21:49.704Z,10.98
2023-04-07T13:24:18.773Z,10.43
2023-04-07T13:26:45.813Z,10.71
2023-04-07T13:29:12.896Z,10.72
2023-04-07T13:31:40.042Z,9.50
2023-04-07T13:34:07.139Z,9.06
2023-04-07T13:36:34.302Z,8.79
2023-04-07T13:39:02.524Z,9.29
2023-04-07T13:41:29.643Z,9.60
2023-04-07T13:43:57.043Z,9.23
2023-04-07T13:46:27.865Z,8.89
2023-04-07T13:48:56.501Z,8.77
2023-04-07T13:51:23.708Z,8.72
2023-04-07T13:53:51.313Z,8.66
2023-04-07T13:56:18.517Z,8.03
2023-04-07T13:58:45.616Z,8.26
2023-04-07T14:01:13.013Z,8.03
2023-04-07T14:03:40.172Z,8.07
2023-04-07T14:06:07.234Z,7.50
2023-04-07T14:08:34.457Z,7.99
2023-04-07T14:11:01.470Z,7.82
2023-04-07T14:13:28.528Z,8.17
2023-04-07T14:15:56.221Z,8.23
2023-04-07T14:18:23.895Z,7.53
2023-04-07T14:20:50.977Z,8.25
2023-04-07T14:23:30.092Z,7.57
2023-04-07T14:26:03.561Z,7.94
2023-04-07T14:28:30.708Z,7.98
2023-04-07T14:30:57.893Z,7.48
2023-04-07T14:33:26.333Z,7.50
2023-04-07T14:35:53.555Z,7.89
2023-04-07T14:38:24.571Z,7.70
2023-04-07T14:40:53.062Z,7.64
2023-04-07T14:43:20.372Z,7.67
2023-04-07T14:45:47.388Z,7.83
2023-04-07T14:48:14.524Z,8.02
2023-04-07T14:50:41.545Z,8.11
2023-04-07T14:53:09.023Z,8.26
2023-04-07T14:55:36.560Z,8.24
2023-04-07T14:58:03.627Z,8.81
2023-04-07T15:00:30.845Z,7.89
2023-04-07T15:02:58.231Z,8.27
2023-04-07T15:05:28.255Z,8.71
2023-04-07T15:07:55.330Z,8.35
2023-04-07T15:10:22.376Z,7.88
2023-04-07T15:12:50.689Z,7.48
2023-04-07T15:15:18.050Z,7.37
2023-04-07T15:17:45.497Z,8.03
2023-04-07T15:20:13.494Z,7.86
2023-04-07T15:22:40.933Z,7.82
2023-04-07T15:25:08.956Z,7.94
2023-04-07T15:27:36.167Z,8.41
2023-04-07T15:30:03.714Z,8.21
2023-04-07T15:32:32.007Z,9.07
2023-04-07T15:34:59.253Z,8.57
2023-04-07T15:37:26.829Z,8.69
2023-04-07T15:39:53.875Z,8.15
2023-04-07T15:42:20.927Z,8.40
2023-04-07T15:44:48.025Z,8.79
2023-04-07T15:47:15.071Z,8.13
2023-04-07T15:49:42.558Z,8.53
2023-04-07T15:52:09.763Z,7.94
2023-04-07T15:54:36.853Z,9.16
2023-04-07T15:57:03.952Z,8.48
2023-04-07T15:59:31.397Z,8.28
2023-04-07T16:01:59.093Z,9.11
2023-04-07T16:04:26.302Z,8.97
2023-04-07T16:06:53.410Z,9.51
2023-04-07T16:09:20.537Z,9.60
2023-04-07T16:11:47.544Z,9.76
2023-04-07T16:14:14.664Z,9.83
2023-04-07T16:16:41.973Z,10.31
2023-04-07T16:19:09.234Z,10.40
2023-04-07T16:21:36.264Z,10.73
2023-04-07T16:24:03.361Z,10.68
2023-04-07T16:26:30.514Z,10.68
2023-04-07T16:28:57.851Z,11.10
2023-04-07T16:31:26.927Z,11.02
2023-04-07T16:33:54.045Z,10.97
2023-04-07T16:36:21.096Z,11.10
2023-04-07T16:38:49.953Z,11.12
2023-04-07T16:41:17.397Z,11.14
2023-04-07T16:43:44.479Z,11.25
2023-04-07T16:46:11.601Z,11.29
2023-04-07T16:48:38.620Z,11.43
2023-04-07T16:51:06.701Z,11.49
2023-04-07T16:53:33.813Z,11.46
2023-04-07T16:56:00.987Z,11.48
2023-04-07T16:58:28.099Z,11.57
2023-04-07T17:00:55.111Z,11.55
2023-04-07T17:03:22.289Z,11.51
2023-04-07T17:05:49.721Z,11.27
2023-04-07T17:08:16.944Z,11.33
2023-04-07T17:10:43.940Z,11.29
2023-04-07T17:13:11.014Z,11.10
2023-04-07T17:15:38.679Z,11.03
2023-04-07T17:18:05.930Z,11.02
2023-04-07T17:20:33.065Z,11.20
2023-04-07T17:23:00.217Z,11.18
2023-04-07T17:25:27.283Z,11.37
2023-04-07T17:27:55.425Z,11.31
2023-04-07T17:30:22.846Z,11.18
2023-04-07T17:32:53.919Z,11.28
2023-04-07T17:35:25.302Z,11.23
2023-04-07T17:37:53.253Z,11.04
2023-04-07T17:40:20.687Z,11.12
2023-04-07T17:42:47.708Z,11.29
2023-04-07T17:45:15.189Z,11.29
2023-04-07T17:47:42.291Z,11.20
2023-04-07T17:50:09.937Z,11.21
2023-04-07T17:52:37.004Z,11.18
2023-04-07T17:55:04.176Z,11.28
2023-04-07T17:57:31.215Z,11.25
2023-04-07T17:59:58.297Z,11.36
2023-04-07T18:02:26.732Z,11.24
2023-04-07T18:04:54.616Z,11.09
2023-04-07T18:07:21.693Z,11.19
2023-04-07T18:09:49.452Z,11.30
2023-04-07T18:12:16.715Z,11.05
2023-04-07T18:14:43.767Z,11.00
2023-04-07T18:17:11.193Z,11.04
2023-04-07T18:19:38.154Z,11.08
2023-04-07T18:22:05.816Z,10.79
2023-04-07T18:24:33.023Z,10.97
2023-04-07T18:27:00.319Z,10.86
2023-04-07T18:29:27.547Z,10.89
2023-04-07T18:31:54.873Z,10.99
2023-04-07T18:34:22.029Z,10.96
2023-04-07T18:36:49.184Z,11.21
2023-04-07T18:39:16.201Z,11.06
2023-04-07T18:41:45.634Z,10.99
2023-04-07T18:44:13.399Z,10.71
2023-04-07T18:46:40.809Z,10.37
2023-04-07T18:49:07.993Z,10.47
2023-04-07T18:51:35.223Z,10.67
2023-04-07T18:54:02.419Z,10.61
2023-04-07T18:56:31.313Z,10.36
2023-04-07T18:58:58.350Z,10.38
2023-04-07T19:01:25.371Z,10.55
2023-04-07T19:03:52.930Z,10.55
2023-04-07T19:06:20.303Z,10.33
2023-04-07T19:08:47.446Z,10.51
2023-04-07T19:11:14.475Z,10.58
2023-04-07T19:13:41.470Z,10.51
2023-04-07T19:16:08.975Z,10.60
2023-04-07T19:18:36.921Z,10.62
2023-04-07T19:21:04.100Z,10.70
2023-04-07T19:23:31.571Z,10.63
2023-04-07T19:25:58.618Z,10.43
2023-04-07T19:28:25.929Z,10.46
2023-04-07T19:30:53.020Z,10.53
2023-04-07T19:33:20.380Z,10.61
2023-04-07T19:35:47.488Z,10.67
2023-04-07T19:38:14.653Z,10.62
2023-04-07T19:40:41.704Z,10.38
2023-04-07T19:43:09.020Z,10.45
2023-04-07T19:45:36.201Z,10.00
2023-04-07T19:48:03.763Z,10.03
2023-04-07T19:50:31.432Z,9.52
2023-04-07T19:52:58.476Z,9.12
2023-04-07T19:55:25.671Z,9.37
2023-04-07T19:57:52.833Z,9.06
2023-04-07T20:00:19.962Z,8.85
2023-04-07T20:02:47.159Z,9.18
2023-04-07T20:05:14.394Z,9.27
2023-04-07T20:07:42.003Z,9.37
2023-04-07T20:10:10.203Z,8.41
2023-04-07T20:12:37.343Z,8.43
2023-04-07T20:15:07.225Z,8.74
2023-04-07T20:17:34.335Z,9.34
2023-04-07T20:20:01.648Z,9.22
2023-04-07T20:22:28.721Z,9.22
2023-04-07T20:24:55.877Z,9.45
2023-04-07T20:27:22.997Z,9.37
2023-04-07T20:29:51.222Z,9.52
2023-04-07T20:32:19.577Z,9.28
2023-04-07T20:34:48.454Z,9.64
2023-04-07T20:37:16.007Z,9.75
2023-04-07T20:39:43.425Z,9.94
2023-04-07T20:42:10.736Z,9.89
2023-04-07T20:44:37.787Z,9.98
2023-04-07T20:47:11.761Z,10.03
2023-04-07T20:49:43.914Z,10.13
2023-04-07T20:52:10.957Z,10.31
2023-04-07T20:54:38.021Z,10.33
2023-04-07T20:57:05.058Z,10.46
2023-04-07T20:59:32.917Z,10.47
2023-04-07T21:02:00.080Z,10.48
2023-04-07T21:04:27.686Z,10.21
2023-04-07T21:06:54.820Z,9.75
2023-04-07T21:09:21.761Z,9.71
2023-04-07T21:11:48.849Z,10.11
2023-04-07T21:14:15.996Z,10.19
2023-04-07T21:16:45.858Z,9.85
2023-04-07T21:19:12.660Z,10.15
2023-04-07T21:21:39.775Z,9.89
2023-04-07T21:24:06.982Z,9.55
2023-04-07T21:26:34.017Z,9.64
2023-04-07T21:29:01.411Z,9.24
2023-04-07T21:31:28.579Z,9.39
2023-04-07T21:33:55.780Z,9.71
2023-04-07T21:36:24.858Z,9.83
2023-04-07T21:38:54.916Z,9.72
2023-04-07T21:41:24.026Z,10.04
2023-04-07T21:43:51.255Z,9.63
2023-04-07T21:46:18.560Z,9.89
2023-04-07T21:48:47.656Z,9.81
2023-04-07T21:51:15.345Z,10.07
2023-04-07T21:53:42.430Z,10.11
2023-04-07T21:56:11.729Z,10.20
2023-04-07T21:58:40.776Z,10.11
2023-04-07T22:01:08.016Z,10.24
2023-04-07T22:03:35.152Z,10.30
2023-04-07T22:06:03.716Z,10.32
2023-04-07T22:08:30.764Z,10.38
2023-04-07T22:10:58.974Z,10.31
2023-04-07T22:13:26.025Z,10.30
2023-04-07T22:15:53.180Z,10.31
2023-04-07T22:18:22.059Z,10.14
2023-04-07T22:20:49.280Z,10.19
2023-04-07T22:23:18.295Z,10.17
2023-04-07T22:25:45.308Z,10.24
2023-04-07T22:28:12.445Z,10.27
2023-04-07T22:30:40.025Z,10.27
2023-04-07T22:33:07.280Z,10.20
2023-04-07T22:35:35.413Z,10.32
2023-04-07T22:38:02.465Z,10.14
2023-04-07T22:40:29.705Z,10.18
2023-04-07T22:42:57.692Z,9.98
2023-04-07T22:45:24.716Z,9.84
2023-04-07T22:47:53.976Z,9.82
2023-04-07T22:50:20.993Z,9.52
2023-04-07T22:52:50.076Z,9.57
2023-04-07T22:55:17.283Z,9.52
2023-04-07T22:57:44.333Z,8.59
2023-04-07T23:00:14.172Z,8.28
2023-04-07T23:02:41.098Z,8.72
2023-04-07T23:05:12.113Z,9.01
2023-04-07T23:07:41.246Z,9.10
2023-04-07T23:10:10.684Z,9.26
2023-04-07T23:12:40.171Z,9.32
2023-04-07T23:15:09.622Z,9.36
2023-04-07T23:17:36.981Z,9.37
2023-04-07T23:20:04.385Z,9.30
2023-04-07T23:22:33.361Z,9.30
2023-04-07T23:25:01.331Z,9.21
2023-04-07T23:27:30.401Z,9.29
2023-04-07T23:29:58.419Z,9.10
2023-04-07T23:32:25.613Z,9.08
2023-04-07T23:34:54.840Z,9.21
2023-04-07T23:37:21.858Z,8.62
2023-04-07T23:39:50.932Z,8.90
2023-04-07T23:42:18.173Z,8.39
2023-04-07T23:44:45.221Z,8.06
2023-04-07T23:47:14.283Z,8.74
2023-04-07T23:49:41.326Z,8.60
2023-04-07T23:52:10.556Z,8.52
2023-04-07T23:54:37.506Z,8.66
2023-04-07T23:57:06.664Z,8.91
2023-04-07T23:59:35.745Z,8.98
